sensor_id;sensor_type;location;lat;lon;timestamp;P1;durP1;ratioP1;P2;durP2;ratioP2
38023;SDS011;23834;48.080;11.682;2022-07-29T00:02:17;2.90;;;2.70;;
38023;SDS011;23834;48.080;11.682;2022-07-29T00:04:42;2.27;;;2.17;;
38023;SDS011;23834;48.080;11.682;2022-07-29T00:07:07;2.60;;;2.40;;
38023;SDS011;23834;48.080;11.682;2022-07-29T00:09:32;2.80;;;2.60;;
38023;SDS011;23834;48.080;11.682;2022-07-29T00:11:59;2.80;;;2.60;;
38023;SDS011;23834;48.080;11.682;2022-07-29T00:14:24;2.33;;;2.13;;
38023;SDS011;23834;48.080;11.682;2022-07-29T00:16:49;2.23;;;2.10;;
38023;SDS011;23834;48.080;11.682;2022-07-29T00:19:15;2.53;;;2.40;;
38023;SDS011;23834;48.080;11.682;2022-07-29T00:21:40;2.30;;;2.20;;
38023;SDS011;23834;48.080;11.682;2022-07-29T00:24:05;2.80;;;2.40;;
38023;SDS011;23834;48.080;11.682;2022-07-29T00:26:30;2.40;;;2.20;;
38023;SDS011;23834;48.080;11.682;2022-07-29T00:29:00;2.23;;;2.13;;
38023;SDS011;23834;48.080;11.682;2022-07-29T00:31:26;2.10;;;2.00;;
38023;SDS011;23834;48.080;11.682;2022-07-29T00:33:51;2.13;;;2.03;;
38023;SDS011;23834;48.080;11.682;2022-07-29T00:36:16;2.17;;;2.07;;
38023;SDS011;23834;48.080;11.682;2022-07-29T00:38:41;2.20;;;2.10;;
38023;SDS011;23834;48.080;11.682;2022-07-29T00:41:10;2.37;;;2.27;;
38023;SDS011;23834;48.080;11.682;2022-07-29T00:43:35;2.07;;;1.97;;
38023;SDS011;23834;48.080;11.682;2022-07-29T00:46:00;2.00;;;1.90;;
38023;SDS011;23834;48.080;11.682;2022-07-29T00:48:25;2.17;;;1.97;;
38023;SDS011;23834;48.080;11.682;2022-07-29T00:50:50;2.33;;;2.13;;
38023;SDS011;23834;48.080;11.682;2022-07-29T00:53:16;2.10;;;2.00;;
38023;SDS011;23834;48.080;11.682;2022-07-29T00:55:41;2.00;;;1.90;;
38023;SDS011;23834;48.080;11.682;2022-07-29T00:58:06;1.80;;;1.70;;
38023;SDS011;23834;48.080;11.682;2022-07-29T01:00:33;1.90;;;1.80;;
38023;SDS011;23834;48.080;11.682;2022-07-29T01:02:58;2.00;;;1.70;;
38023;SDS011;23834;48.080;11.682;2022-07-29T01:05:24;1.83;;;1.73;;
38023;SDS011;23834;48.080;11.682;2022-07-29T01:07:52;1.73;;;1.63;;
38023;SDS011;23834;48.080;11.682;2022-07-29T01:10:18;1.40;;;1.40;;
38023;SDS011;23834;48.080;11.682;2022-07-29T01:12:44;2.00;;;1.90;;
38023;SDS011;23834;48.080;11.682;2022-07-29T01:15:11;1.93;;;1.83;;
38023;SDS011;23834;48.080;11.682;2022-07-29T01:22:28;2.10;;;2.00;;
38023;SDS011;23834;48.080;11.682;2022-07-29T01:28:06;1.90;;;1.80;;
38023;SDS011;23834;48.080;11.682;2022-07-29T01:30:09;1.70;;;1.60;;
38023;SDS011;23834;48.080;11.682;2022-07-29T01:32:36;1.80;;;1.70;;
38023;SDS011;23834;48.080;11.682;2022-07-29T01:35:03;1.90;;;1.80;;
38023;SDS011;23834;48.080;11.682;2022-07-29T01:37:32;1.67;;;1.57;;
38023;SDS011;23834;48.080;11.682;2022-07-29T01:40:00;1.70;;;1.60;;
38023;SDS011;23834;48.080;11.682;2022-07-29T01:45:06;1.70;;;1.60;;
38023;SDS011;23834;48.080;11.682;2022-07-29T01:47:38;2.00;;;1.90;;
38023;SDS011;23834;48.080;11.682;2022-07-29T01:50:05;2.00;;;1.90;;
38023;SDS011;23834;48.080;11.682;2022-07-29T01:52:54;1.50;;;1.50;;
38023;SDS011;23834;48.080;11.682;2022-07-29T01:55:17;1.60;;;1.50;;
38023;SDS011;23834;48.080;11.682;2022-07-29T01:57:46;1.40;;;1.40;;
38023;SDS011;23834;48.080;11.682;2022-07-29T02:00:12;1.53;;;1.43;;
38023;SDS011;23834;48.080;11.682;2022-07-29T02:02:39;1.43;;;1.33;;
38023;SDS011;23834;48.080;11.682;2022-07-29T02:05:05;1.60;;;1.50;;
38023;SDS011;23834;48.080;11.682;2022-07-29T02:07:32;1.30;;;1.30;;
38023;SDS011;23834;48.080;11.682;2022-07-29T02:09:58;1.37;;;1.37;;
38023;SDS011;23834;48.080;11.682;2022-07-29T02:12:25;1.30;;;1.20;;
38023;SDS011;23834;48.080;11.682;2022-07-29T02:14:52;1.83;;;1.73;;
38023;SDS011;23834;48.080;11.682;2022-07-29T02:17:22;1.70;;;1.60;;
38023;SDS011;23834;48.080;11.682;2022-07-29T02:19:48;1.50;;;1.40;;
38023;SDS011;23834;48.080;11.682;2022-07-29T02:22:14;1.20;;;1.20;;
38023;SDS011;23834;48.080;11.682;2022-07-29T02:24:39;1.50;;;1.40;;
38023;SDS011;23834;48.080;11.682;2022-07-29T02:27:05;1.60;;;1.50;;
38023;SDS011;23834;48.080;11.682;2022-07-29T02:29:32;1.47;;;1.43;;
38023;SDS011;23834;48.080;11.682;2022-07-29T02:31:57;1.33;;;1.30;;
38023;SDS011;23834;48.080;11.682;2022-07-29T02:34:24;1.30;;;1.30;;
38023;SDS011;23834;48.080;11.682;2022-07-29T02:36:49;1.60;;;1.50;;
38023;SDS011;23834;48.080;11.682;2022-07-29T02:39:15;1.60;;;1.50;;
38023;SDS011;23834;48.080;11.682;2022-07-29T02:41:46;1.60;;;1.50;;
38023;SDS011;23834;48.080;11.682;2022-07-29T02:44:16;1.40;;;1.30;;
38023;SDS011;23834;48.080;11.682;2022-07-29T02:47:27;1.40;;;1.30;;
38023;SDS011;23834;48.080;11.682;2022-07-29T02:52:00;1.30;;;1.20;;
38023;SDS011;23834;48.080;11.682;2022-07-29T02:54:32;1.57;;;1.47;;
38023;SDS011;23834;48.080;11.682;2022-07-29T02:56:59;1.30;;;1.20;;
38023;SDS011;23834;48.080;11.682;2022-07-29T02:59:26;1.40;;;1.30;;
38023;SDS011;23834;48.080;11.682;2022-07-29T03:01:52;1.20;;;1.20;;
38023;SDS011;23834;48.080;11.682;2022-07-29T03:04:18;1.20;;;1.20;;
38023;SDS011;23834;48.080;11.682;2022-07-29T03:06:44;1.30;;;1.30;;
38023;SDS011;23834;48.080;11.682;2022-07-29T03:09:10;1.30;;;1.30;;
38023;SDS011;23834;48.080;11.682;2022-07-29T03:11:35;1.20;;;1.20;;
38023;SDS011;23834;48.080;11.682;2022-07-29T03:14:01;1.23;;;1.23;;
38023;SDS011;23834;48.080;11.682;2022-07-29T03:16:26;1.40;;;1.30;;
38023;SDS011;23834;48.080;11.682;2022-07-29T03:18:52;1.57;;;1.47;;
38023;SDS011;23834;48.080;11.682;2022-07-29T03:21:18;1.30;;;1.20;;
38023;SDS011;23834;48.080;11.682;2022-07-29T03:23:43;1.57;;;1.47;;
38023;SDS011;23834;48.080;11.682;2022-07-29T03:26:09;1.20;;;1.20;;
38023;SDS011;23834;48.080;11.682;2022-07-29T03:28:35;1.50;;;1.40;;
38023;SDS011;23834;48.080;11.682;2022-07-29T03:31:00;1.63;;;1.40;;
38023;SDS011;23834;48.080;11.682;2022-07-29T03:33:25;1.23;;;1.13;;
38023;SDS011;23834;48.080;11.682;2022-07-29T03:35:50;1.33;;;1.23;;
38023;SDS011;23834;48.080;11.682;2022-07-29T03:38:16;1.53;;;1.30;;
38023;SDS011;23834;48.080;11.682;2022-07-29T03:40:45;1.30;;;1.20;;
38023;SDS011;23834;48.080;11.682;2022-07-29T03:43:11;1.13;;;1.10;;
38023;SDS011;23834;48.080;11.682;2022-07-29T03:45:38;1.17;;;1.17;;
38023;SDS011;23834;48.080;11.682;2022-07-29T03:48:05;1.43;;;1.33;;
38023;SDS011;23834;48.080;11.682;2022-07-29T03:50:31;1.53;;;1.43;;
38023;SDS011;23834;48.080;11.682;2022-07-29T03:52:57;1.23;;;1.13;;
38023;SDS011;23834;48.080;11.682;2022-07-29T03:55:23;1.20;;;1.10;;
38023;SDS011;23834;48.080;11.682;2022-07-29T03:57:48;0.97;;;0.97;;
38023;SDS011;23834;48.080;11.682;2022-07-29T04:00:14;1.40;;;1.30;;
38023;SDS011;23834;48.080;11.682;2022-07-29T04:02:40;1.07;;;1.07;;
38023;SDS011;23834;48.080;11.682;2022-07-29T04:05:13;1.50;;;1.40;;
38023;SDS011;23834;48.080;11.682;2022-07-29T04:07:38;1.20;;;1.10;;
38023;SDS011;23834;48.080;11.682;2022-07-29T04:10:04;1.17;;;1.10;;
38023;SDS011;23834;48.080;11.682;2022-07-29T04:12:29;1.17;;;1.17;;
38023;SDS011;23834;48.080;11.682;2022-07-29T04:14:54;1.20;;;1.20;;
38023;SDS011;23834;48.080;11.682;2022-07-29T04:17:19;1.17;;;1.10;;
38023;SDS011;23834;48.080;11.682;2022-07-29T04:19:44;1.00;;;1.00;;
38023;SDS011;23834;48.080;11.682;2022-07-29T04:22:10;1.50;;;1.30;;
38023;SDS011;23834;48.080;11.682;2022-07-29T04:24:35;1.30;;;1.30;;
38023;SDS011;23834;48.080;11.682;2022-07-29T04:27:00;1.20;;;1.20;;
38023;SDS011;23834;48.080;11.682;2022-07-29T04:29:25;1.20;;;1.10;;
38023;SDS011;23834;48.080;11.682;2022-07-29T04:31:50;1.40;;;1.30;;
38023;SDS011;23834;48.080;11.682;2022-07-29T04:34:16;1.00;;;1.00;;
38023;SDS011;23834;48.080;11.682;2022-07-29T04:36:41;1.37;;;1.30;;
38023;SDS011;23834;48.080;11.682;2022-07-29T04:39:06;1.20;;;1.10;;
38023;SDS011;23834;48.080;11.682;2022-07-29T04:41:31;1.40;;;1.40;;
38023;SDS011;23834;48.080;11.682;2022-07-29T04:43:57;1.27;;;1.17;;
38023;SDS011;23834;48.080;11.682;2022-07-29T04:46:22;1.20;;;1.17;;
38023;SDS011;23834;48.080;11.682;2022-07-29T04:48:47;1.37;;;1.27;;
38023;SDS011;23834;48.080;11.682;2022-07-29T04:51:13;1.20;;;1.20;;
38023;SDS011;23834;48.080;11.682;2022-07-29T04:53:38;1.47;;;1.37;;
38023;SDS011;23834;48.080;11.682;2022-07-29T04:56:03;1.47;;;1.37;;
38023;SDS011;23834;48.080;11.682;2022-07-29T04:58:28;1.57;;;1.47;;
38023;SDS011;23834;48.080;11.682;2022-07-29T05:00:54;1.30;;;1.20;;
38023;SDS011;23834;48.080;11.682;2022-07-29T05:03:19;1.70;;;1.60;;
38023;SDS011;23834;48.080;11.682;2022-07-29T05:05:44;1.47;;;1.37;;
38023;SDS011;23834;48.080;11.682;2022-07-29T05:08:09;1.77;;;1.67;;
38023;SDS011;23834;48.080;11.682;2022-07-29T05:10:34;1.50;;;1.40;;
38023;SDS011;23834;48.080;11.682;2022-07-29T05:13:03;1.50;;;1.50;;
38023;SDS011;23834;48.080;11.682;2022-07-29T05:15:28;1.50;;;1.40;;
38023;SDS011;23834;48.080;11.682;2022-07-29T05:17:53;1.60;;;1.50;;
38023;SDS011;23834;48.080;11.682;2022-07-29T05:20:19;1.70;;;1.60;;
38023;SDS011;23834;48.080;11.682;2022-07-29T05:22:44;1.60;;;1.60;;
38023;SDS011;23834;48.080;11.682;2022-07-29T05:25:09;1.53;;;1.47;;
38023;SDS011;23834;48.080;11.682;2022-07-29T05:27:35;1.93;;;1.83;;
38023;SDS011;23834;48.080;11.682;2022-07-29T05:30:00;1.53;;;1.43;;
38023;SDS011;23834;48.080;11.682;2022-07-29T05:32:25;1.40;;;1.40;;
38023;SDS011;23834;48.080;11.682;2022-07-29T05:34:51;1.60;;;1.50;;
38023;SDS011;23834;48.080;11.682;2022-07-29T05:37:16;1.70;;;1.60;;
38023;SDS011;23834;48.080;11.682;2022-07-29T05:39:42;1.70;;;1.60;;
38023;SDS011;23834;48.080;11.682;2022-07-29T05:42:08;1.63;;;1.57;;
38023;SDS011;23834;48.080;11.682;2022-07-29T05:44:35;1.43;;;1.40;;
38023;SDS011;23834;48.080;11.682;2022-07-29T05:47:01;1.47;;;1.47;;
38023;SDS011;23834;48.080;11.682;2022-07-29T05:49:26;1.53;;;1.43;;
38023;SDS011;23834;48.080;11.682;2022-07-29T05:51:51;1.20;;;1.20;;
38023;SDS011;23834;48.080;11.682;2022-07-29T05:54:16;1.73;;;1.63;;
38023;SDS011;23834;48.080;11.682;2022-07-29T05:56:41;1.27;;;1.27;;
38023;SDS011;23834;48.080;11.682;2022-07-29T05:59:06;1.40;;;1.40;;
38023;SDS011;23834;48.080;11.682;2022-07-29T06:01:32;1.43;;;1.33;;
38023;SDS011;23834;48.080;11.682;2022-07-29T06:03:57;1.37;;;1.37;;
38023;SDS011;23834;48.080;11.682;2022-07-29T06:06:22;1.60;;;1.50;;
38023;SDS011;23834;48.080;11.682;2022-07-29T06:08:48;1.60;;;1.50;;
38023;SDS011;23834;48.080;11.682;2022-07-29T06:11:13;1.47;;;1.37;;
38023;SDS011;23834;48.080;11.682;2022-07-29T06:13:38;1.80;;;1.70;;
38023;SDS011;23834;48.080;11.682;2022-07-29T06:16:03;1.60;;;1.50;;
38023;SDS011;23834;48.080;11.682;2022-07-29T06:18:29;1.80;;;1.70;;
38023;SDS011;23834;48.080;11.682;2022-07-29T06:20:54;1.87;;;1.77;;
38023;SDS011;23834;48.080;11.682;2022-07-29T06:23:19;1.90;;;1.80;;
38023;SDS011;23834;48.080;11.682;2022-07-29T06:25:45;1.87;;;1.77;;
38023;SDS011;23834;48.080;11.682;2022-07-29T06:28:10;1.63;;;1.53;;
38023;SDS011;23834;48.080;11.682;2022-07-29T06:30:36;1.67;;;1.57;;
38023;SDS011;23834;48.080;11.682;2022-07-29T06:33:01;1.50;;;1.40;;
38023;SDS011;23834;48.080;11.682;2022-07-29T06:35:27;1.63;;;1.57;;
38023;SDS011;23834;48.080;11.682;2022-07-29T06:37:52;1.53;;;1.53;;
38023;SDS011;23834;48.080;11.682;2022-07-29T06:40:17;1.90;;;1.80;;
38023;SDS011;23834;48.080;11.682;2022-07-29T06:43:01;1.40;;;1.30;;
38023;SDS011;23834;48.080;11.682;2022-07-29T06:45:26;1.83;;;1.73;;
38023;SDS011;23834;48.080;11.682;2022-07-29T06:47:51;1.80;;;1.70;;
38023;SDS011;23834;48.080;11.682;2022-07-29T06:50:17;1.80;;;1.70;;
38023;SDS011;23834;48.080;11.682;2022-07-29T06:52:42;2.00;;;1.90;;
38023;SDS011;23834;48.080;11.682;2022-07-29T06:55:07;1.63;;;1.53;;
38023;SDS011;23834;48.080;11.682;2022-07-29T06:57:33;1.67;;;1.57;;
38023;SDS011;23834;48.080;11.682;2022-07-29T06:59:58;1.73;;;1.60;;
38023;SDS011;23834;48.080;11.682;2022-07-29T07:02:23;1.70;;;1.60;;
38023;SDS011;23834;48.080;11.682;2022-07-29T07:04:48;1.70;;;1.60;;
38023;SDS011;23834;48.080;11.682;2022-07-29T07:07:14;1.73;;;1.63;;
38023;SDS011;23834;48.080;11.682;2022-07-29T07:09:39;1.70;;;1.60;;
38023;SDS011;23834;48.080;11.682;2022-07-29T07:12:04;1.90;;;1.80;;
38023;SDS011;23834;48.080;11.682;2022-07-29T07:14:29;1.60;;;1.50;;
38023;SDS011;23834;48.080;11.682;2022-07-29T07:16:54;1.77;;;1.67;;
38023;SDS011;23834;48.080;11.682;2022-07-29T07:19:20;1.60;;;1.50;;
38023;SDS011;23834;48.080;11.682;2022-07-29T07:21:45;1.73;;;1.63;;
38023;SDS011;23834;48.080;11.682;2022-07-29T07:24:10;1.60;;;1.50;;
38023;SDS011;23834;48.080;11.682;2022-07-29T07:26:35;1.73;;;1.63;;
38023;SDS011;23834;48.080;11.682;2022-07-29T07:29:01;1.77;;;1.67;;
38023;SDS011;23834;48.080;11.682;2022-07-29T07:31:26;1.37;;;1.37;;
38023;SDS011;23834;48.080;11.682;2022-07-29T07:33:51;1.63;;;1.53;;
38023;SDS011;23834;48.080;11.682;2022-07-29T07:36:18;2.00;;;1.90;;
38023;SDS011;23834;48.080;11.682;2022-07-29T07:38:43;1.87;;;1.77;;
38023;SDS011;23834;48.080;11.682;2022-07-29T07:41:08;1.80;;;1.70;;
38023;SDS011;23834;48.080;11.682;2022-07-29T07:43:34;1.63;;;1.53;;
38023;SDS011;23834;48.080;11.682;2022-07-29T07:45:59;1.77;;;1.67;;
38023;SDS011;23834;48.080;11.682;2022-07-29T07:48:24;1.73;;;1.63;;
38023;SDS011;23834;48.080;11.682;2022-07-29T07:50:49;1.90;;;1.80;;
38023;SDS011;23834;48.080;11.682;2022-07-29T07:53:15;1.60;;;1.53;;
38023;SDS011;23834;48.080;11.682;2022-07-29T07:55:41;1.33;;;1.33;;
38023;SDS011;23834;48.080;11.682;2022-07-29T07:58:06;1.60;;;1.50;;
38023;SDS011;23834;48.080;11.682;2022-07-29T08:00:31;1.70;;;1.60;;
38023;SDS011;23834;48.080;11.682;2022-07-29T08:02:57;1.70;;;1.60;;
38023;SDS011;23834;48.080;11.682;2022-07-29T08:05:22;1.60;;;1.50;;
38023;SDS011;23834;48.080;11.682;2022-07-29T08:07:48;1.77;;;1.67;;
38023;SDS011;23834;48.080;11.682;2022-07-29T08:10:14;1.50;;;1.40;;
38023;SDS011;23834;48.080;11.682;2022-07-29T08:12:39;1.80;;;1.70;;
38023;SDS011;23834;48.080;11.682;2022-07-29T08:15:04;1.50;;;1.40;;
38023;SDS011;23834;48.080;11.682;2022-07-29T08:17:32;1.50;;;1.50;;
38023;SDS011;23834;48.080;11.682;2022-07-29T08:19:57;1.60;;;1.50;;
38023;SDS011;23834;48.080;11.682;2022-07-29T08:22:23;1.80;;;1.70;;
38023;SDS011;23834;48.080;11.682;2022-07-29T08:24:48;1.57;;;1.47;;
38023;SDS011;23834;48.080;11.682;2022-07-29T08:27:20;1.63;;;1.53;;
38023;SDS011;23834;48.080;11.682;2022-07-29T08:29:46;1.60;;;1.50;;
38023;SDS011;23834;48.080;11.682;2022-07-29T08:32:11;1.50;;;1.40;;
38023;SDS011;23834;48.080;11.682;2022-07-29T08:34:36;1.60;;;1.50;;
38023;SDS011;23834;48.080;11.682;2022-07-29T08:37:02;1.30;;;1.20;;
38023;SDS011;23834;48.080;11.682;2022-07-29T08:39:27;1.60;;;1.50;;
38023;SDS011;23834;48.080;11.682;2022-07-29T08:41:52;1.77;;;1.67;;
38023;SDS011;23834;48.080;11.682;2022-07-29T08:44:18;1.60;;;1.50;;
38023;SDS011;23834;48.080;11.682;2022-07-29T08:46:43;1.27;;;1.27;;
38023;SDS011;23834;48.080;11.682;2022-07-29T08:49:09;1.60;;;1.50;;
38023;SDS011;23834;48.080;11.682;2022-07-29T08:51:34;1.70;;;1.60;;
38023;SDS011;23834;48.080;11.682;2022-07-29T08:54:01;1.77;;;1.60;;
38023;SDS011;23834;48.080;11.682;2022-07-29T08:56:26;1.70;;;1.60;;
38023;SDS011;23834;48.080;11.682;2022-07-29T08:58:52;1.80;;;1.70;;
38023;SDS011;23834;48.080;11.682;2022-07-29T09:01:22;1.70;;;1.60;;
38023;SDS011;23834;48.080;11.682;2022-07-29T09:03:48;2.33;;;1.93;;
38023;SDS011;23834;48.080;11.682;2022-07-29T09:06:14;1.67;;;1.57;;
38023;SDS011;23834;48.080;11.682;2022-07-29T09:08:39;1.37;;;1.33;;
38023;SDS011;23834;48.080;11.682;2022-07-29T09:11:05;1.90;;;1.80;;
38023;SDS011;23834;48.080;11.682;2022-07-29T09:13:32;1.13;;;1.07;;
38023;SDS011;23834;48.080;11.682;2022-07-29T09:15:57;1.87;;;1.77;;
38023;SDS011;23834;48.080;11.682;2022-07-29T09:18:39;2.07;;;1.63;;
38023;SDS011;23834;48.080;11.682;2022-07-29T09:21:06;2.10;;;2.00;;
38023;SDS011;23834;48.080;11.682;2022-07-29T09:24:11;1.83;;;1.73;;
38023;SDS011;23834;48.080;11.682;2022-07-29T09:26:36;2.03;;;1.60;;
38023;SDS011;23834;48.080;11.682;2022-07-29T09:29:13;1.83;;;1.73;;
38023;SDS011;23834;48.080;11.682;2022-07-29T09:31:39;2.47;;;1.90;;
38023;SDS011;23834;48.080;11.682;2022-07-29T09:34:05;1.60;;;1.50;;
38023;SDS011;23834;48.080;11.682;2022-07-29T09:36:33;2.00;;;1.80;;
38023;SDS011;23834;48.080;11.682;2022-07-29T09:39:03;2.00;;;1.70;;
38023;SDS011;23834;48.080;11.682;2022-07-29T09:41:28;1.80;;;1.70;;
38023;SDS011;23834;48.080;11.682;2022-07-29T09:43:57;1.57;;;1.47;;
38023;SDS011;23834;48.080;11.682;2022-07-29T09:46:22;2.40;;;1.70;;
38023;SDS011;23834;48.080;11.682;2022-07-29T09:49:05;2.10;;;2.00;;
38023;SDS011;23834;48.080;11.682;2022-07-29T09:51:30;1.83;;;1.73;;
38023;SDS011;23834;48.080;11.682;2022-07-29T09:53:56;1.60;;;1.50;;
38023;SDS011;23834;48.080;11.682;2022-07-29T09:56:37;1.47;;;1.37;;
38023;SDS011;23834;48.080;11.682;2022-07-29T09:59:06;1.20;;;1.20;;
38023;SDS011;23834;48.080;11.682;2022-07-29T10:01:31;1.50;;;1.40;;
38023;SDS011;23834;48.080;11.682;2022-07-29T10:03:56;1.70;;;1.60;;
38023;SDS011;23834;48.080;11.682;2022-07-29T10:06:22;1.93;;;1.80;;
38023;SDS011;23834;48.080;11.682;2022-07-29T10:08:47;1.90;;;1.80;;
38023;SDS011;23834;48.080;11.682;2022-07-29T10:11:15;1.67;;;1.57;;
38023;SDS011;23834;48.080;11.682;2022-07-29T10:13:41;1.70;;;1.60;;
38023;SDS011;23834;48.080;11.682;2022-07-29T10:16:07;2.13;;;1.93;;
38023;SDS011;23834;48.080;11.682;2022-07-29T10:18:33;1.37;;;1.30;;
38023;SDS011;23834;48.080;11.682;2022-07-29T10:20:58;1.90;;;1.77;;
38023;SDS011;23834;48.080;11.682;2022-07-29T10:23:26;1.57;;;1.47;;
38023;SDS011;23834;48.080;11.682;2022-07-29T10:25:51;2.10;;;1.43;;
38023;SDS011;23834;48.080;11.682;2022-07-29T10:28:16;1.90;;;1.80;;
38023;SDS011;23834;48.080;11.682;2022-07-29T10:30:41;1.63;;;1.53;;
38023;SDS011;23834;48.080;11.682;2022-07-29T10:33:13;1.40;;;1.30;;
38023;SDS011;23834;48.080;11.682;2022-07-29T10:40:45;1.53;;;1.43;;
38023;SDS011;23834;48.080;11.682;2022-07-29T10:43:32;1.40;;;1.30;;
38023;SDS011;23834;48.080;11.682;2022-07-29T10:46:01;1.40;;;1.40;;
38023;SDS011;23834;48.080;11.682;2022-07-29T10:48:26;1.60;;;1.50;;
38023;SDS011;23834;48.080;11.682;2022-07-29T10:50:55;1.60;;;1.50;;
38023;SDS011;23834;48.080;11.682;2022-07-29T10:53:24;1.80;;;1.70;;
38023;SDS011;23834;48.080;11.682;2022-07-29T10:55:56;1.50;;;1.40;;
38023;SDS011;23834;48.080;11.682;2022-07-29T10:58:22;1.50;;;1.40;;
38023;SDS011;23834;48.080;11.682;2022-07-29T11:00:52;1.63;;;1.53;;
38023;SDS011;23834;48.080;11.682;2022-07-29T11:06:01;1.80;;;1.70;;
38023;SDS011;23834;48.080;11.682;2022-07-29T11:08:27;1.60;;;1.50;;
38023;SDS011;23834;48.080;11.682;2022-07-29T11:10:53;1.70;;;1.60;;
38023;SDS011;23834;48.080;11.682;2022-07-29T11:16:02;1.80;;;1.70;;
38023;SDS011;23834;48.080;11.682;2022-07-29T11:18:28;1.70;;;1.60;;
38023;SDS011;23834;48.080;11.682;2022-07-29T11:20:53;1.60;;;1.50;;
38023;SDS011;23834;48.080;11.682;2022-07-29T11:23:29;1.57;;;1.47;;
38023;SDS011;23834;48.080;11.682;2022-07-29T11:28:39;1.57;;;1.47;;
38023;SDS011;23834;48.080;11.682;2022-07-29T11:31:07;1.80;;;1.70;;
38023;SDS011;23834;48.080;11.682;2022-07-29T11:33:33;1.60;;;1.50;;
38023;SDS011;23834;48.080;11.682;2022-07-29T11:36:11;1.77;;;1.67;;
38023;SDS011;23834;48.080;11.682;2022-07-29T11:38:36;2.20;;;2.00;;
38023;SDS011;23834;48.080;11.682;2022-07-29T11:43:48;1.60;;;1.50;;
38023;SDS011;23834;48.080;11.682;2022-07-29T11:46:14;1.60;;;1.50;;
38023;SDS011;23834;48.080;11.682;2022-07-29T11:48:42;1.80;;;1.70;;
38023;SDS011;23834;48.080;11.682;2022-07-29T11:51:11;1.77;;;1.67;;
38023;SDS011;23834;48.080;11.682;2022-07-29T11:53:36;1.73;;;1.63;;
38023;SDS011;23834;48.080;11.682;2022-07-29T11:56:02;1.70;;;1.60;;
38023;SDS011;23834;48.080;11.682;2022-07-29T11:58:28;1.80;;;1.70;;
38023;SDS011;23834;48.080;11.682;2022-07-29T12:00:54;1.87;;;1.77;;
38023;SDS011;23834;48.080;11.682;2022-07-29T12:03:23;1.60;;;1.50;;
38023;SDS011;23834;48.080;11.682;2022-07-29T12:05:49;2.07;;;1.97;;
38023;SDS011;23834;48.080;11.682;2022-07-29T12:08:15;1.97;;;1.87;;
38023;SDS011;23834;48.080;11.682;2022-07-29T12:10:43;1.60;;;1.50;;
38023;SDS011;23834;48.080;11.682;2022-07-29T12:13:09;2.50;;;1.60;;
38023;SDS011;23834;48.080;11.682;2022-07-29T12:15:34;1.97;;;1.87;;
38023;SDS011;23834;48.080;11.682;2022-07-29T12:18:09;1.87;;;1.77;;
38023;SDS011;23834;48.080;11.682;2022-07-29T12:20:34;1.83;;;1.73;;
38023;SDS011;23834;48.080;11.682;2022-07-29T12:23:03;1.83;;;1.73;;
38023;SDS011;23834;48.080;11.682;2022-07-29T12:25:33;1.57;;;1.53;;
38023;SDS011;23834;48.080;11.682;2022-07-29T12:27:59;1.47;;;1.47;;
38023;SDS011;23834;48.080;11.682;2022-07-29T12:30:34;2.23;;;2.13;;
38023;SDS011;23834;48.080;11.682;2022-07-29T12:32:59;1.67;;;1.57;;
38023;SDS011;23834;48.080;11.682;2022-07-29T12:35:24;1.70;;;1.60;;
38023;SDS011;23834;48.080;11.682;2022-07-29T12:37:50;1.57;;;1.47;;
38023;SDS011;23834;48.080;11.682;2022-07-29T12:40:17;1.83;;;1.73;;
38023;SDS011;23834;48.080;11.682;2022-07-29T12:45:30;1.90;;;1.80;;
38023;SDS011;23834;48.080;11.682;2022-07-29T12:47:55;1.80;;;1.70;;
38023;SDS011;23834;48.080;11.682;2022-07-29T12:50:21;1.57;;;1.47;;
38023;SDS011;23834;48.080;11.682;2022-07-29T12:52:46;1.90;;;1.80;;
38023;SDS011;23834;48.080;11.682;2022-07-29T12:55:12;1.83;;;1.73;;
38023;SDS011;23834;48.080;11.682;2022-07-29T12:57:50;2.20;;;2.10;;
38023;SDS011;23834;48.080;11.682;2022-07-29T13:00:21;1.60;;;1.50;;
38023;SDS011;23834;48.080;11.682;2022-07-29T13:02:53;1.80;;;1.70;;
38023;SDS011;23834;48.080;11.682;2022-07-29T13:05:19;2.10;;;1.97;;
38023;SDS011;23834;48.080;11.682;2022-07-29T13:07:44;1.93;;;1.83;;
38023;SDS011;23834;48.080;11.682;2022-07-29T13:10:10;2.10;;;1.90;;
38023;SDS011;23834;48.080;11.682;2022-07-29T13:12:36;1.83;;;1.73;;
38023;SDS011;23834;48.080;11.682;2022-07-29T13:15:11;1.77;;;1.67;;
38023;SDS011;23834;48.080;11.682;2022-07-29T13:17:39;1.60;;;1.50;;
38023;SDS011;23834;48.080;11.682;2022-07-29T13:20:05;1.70;;;1.60;;
38023;SDS011;23834;48.080;11.682;2022-07-29T13:22:31;1.97;;;1.87;;
38023;SDS011;23834;48.080;11.682;2022-07-29T13:24:57;2.80;;;2.07;;
38023;SDS011;23834;48.080;11.682;2022-07-29T13:27:24;1.63;;;1.53;;
38023;SDS011;23834;48.080;11.682;2022-07-29T13:29:49;1.80;;;1.70;;
38023;SDS011;23834;48.080;11.682;2022-07-29T13:32:18;1.70;;;1.60;;
38023;SDS011;23834;48.080;11.682;2022-07-29T13:34:43;2.03;;;1.93;;
38023;SDS011;23834;48.080;11.682;2022-07-29T13:37:09;1.90;;;1.80;;
38023;SDS011;23834;48.080;11.682;2022-07-29T13:39:34;1.97;;;1.87;;
38023;SDS011;23834;48.080;11.682;2022-07-29T13:41:59;1.93;;;1.83;;
38023;SDS011;23834;48.080;11.682;2022-07-29T13:44:24;2.00;;;1.90;;
38023;SDS011;23834;48.080;11.682;2022-07-29T13:46:50;1.80;;;1.70;;
38023;SDS011;23834;48.080;11.682;2022-07-29T13:49:15;2.00;;;1.90;;
38023;SDS011;23834;48.080;11.682;2022-07-29T13:51:40;1.73;;;1.63;;
38023;SDS011;23834;48.080;11.682;2022-07-29T13:54:06;1.87;;;1.77;;
38023;SDS011;23834;48.080;11.682;2022-07-29T13:56:31;1.97;;;1.87;;
38023;SDS011;23834;48.080;11.682;2022-07-29T13:58:56;2.10;;;2.00;;
38023;SDS011;23834;48.080;11.682;2022-07-29T14:01:22;2.10;;;2.00;;
38023;SDS011;23834;48.080;11.682;2022-07-29T14:03:47;1.90;;;1.80;;
38023;SDS011;23834;48.080;11.682;2022-07-29T14:06:12;1.70;;;1.60;;
38023;SDS011;23834;48.080;11.682;2022-07-29T14:08:38;1.90;;;1.80;;
38023;SDS011;23834;48.080;11.682;2022-07-29T14:11:03;1.80;;;1.70;;
38023;SDS011;23834;48.080;11.682;2022-07-29T14:13:28;1.80;;;1.70;;
38023;SDS011;23834;48.080;11.682;2022-07-29T14:15:53;1.90;;;1.80;;
38023;SDS011;23834;48.080;11.682;2022-07-29T14:18:19;1.97;;;1.80;;
38023;SDS011;23834;48.080;11.682;2022-07-29T14:20:44;2.00;;;1.90;;
38023;SDS011;23834;48.080;11.682;2022-07-29T14:23:09;1.87;;;1.77;;
38023;SDS011;23834;48.080;11.682;2022-07-29T14:25:34;1.77;;;1.67;;
38023;SDS011;23834;48.080;11.682;2022-07-29T14:27:59;2.20;;;2.10;;
38023;SDS011;23834;48.080;11.682;2022-07-29T14:30:25;1.80;;;1.70;;
38023;SDS011;23834;48.080;11.682;2022-07-29T14:32:50;1.70;;;1.60;;
38023;SDS011;23834;48.080;11.682;2022-07-29T14:35:15;1.97;;;1.87;;
38023;SDS011;23834;48.080;11.682;2022-07-29T14:37:40;1.70;;;1.60;;
38023;SDS011;23834;48.080;11.682;2022-07-29T14:40:06;1.60;;;1.50;;
38023;SDS011;23834;48.080;11.682;2022-07-29T14:42:31;1.77;;;1.67;;
38023;SDS011;23834;48.080;11.682;2022-07-29T14:44:57;2.13;;;2.03;;
38023;SDS011;23834;48.080;11.682;2022-07-29T14:47:22;2.30;;;2.10;;
38023;SDS011;23834;48.080;11.682;2022-07-29T14:49:48;1.77;;;1.67;;
38023;SDS011;23834;48.080;11.682;2022-07-29T14:52:13;2.17;;;2.07;;
38023;SDS011;23834;48.080;11.682;2022-07-29T14:54:38;1.87;;;1.77;;
38023;SDS011;23834;48.080;11.682;2022-07-29T14:57:03;2.13;;;2.00;;
38023;SDS011;23834;48.080;11.682;2022-07-29T14:59:29;2.03;;;1.93;;
38023;SDS011;23834;48.080;11.682;2022-07-29T15:01:54;2.20;;;2.10;;